createdAt,value
2018-08-30T00:00:07.631Z,975.63
2018-08-30T00:00:46.571Z,975.64
2018-08-30T00:01:46.493Z,975.64
2018-08-30T00:02:46.427Z,975.63
2018-08-30T00:03:46.358Z,975.67
2018-08-30T00:04:46.287Z,975.69
2018-08-30T00:06:07.197Z,975.68
2018-08-30T00:06:46.139Z,975.71
2018-08-30T00:07:46.068Z,975.69
2018-08-30T00:08:45.994Z,975.70
2018-08-30T00:09:45.931Z,975.74
2018-08-30T00:10:45.852Z,975.74
2018-08-30T00:12:06.767Z,975.72
2018-08-30T00:12:45.705Z,975.71
2018-08-30T00:13:45.635Z,975.70
2018-08-30T00:14:45.572Z,975.71
2018-08-30T00:15:45.494Z,975.70
2018-08-30T00:16:45.432Z,975.74
2018-08-30T00:18:06.333Z,975.78
2018-08-30T00:18:45.280Z,975.79
2018-08-30T00:19:45.201Z,975.78
2018-08-30T00:20:45.143Z,975.85
2018-08-30T00:21:45.066Z,975.84
2018-08-30T00:22:44.995Z,975.82
2018-08-30T00:24:05.904Z,975.88
2018-08-30T00:24:44.864Z,975.85
2018-08-30T00:25:44.777Z,975.88
2018-08-30T00:26:44.713Z,975.87
2018-08-30T00:27:44.639Z,975.89
2018-08-30T00:28:44.569Z,975.90
2018-08-30T00:30:05.480Z,975.88
2018-08-30T00:30:44.434Z,975.92
2018-08-30T00:31:44.345Z,975.92
2018-08-30T00:32:44.276Z,975.92
2018-08-30T00:33:44.198Z,975.97
2018-08-30T00:34:44.138Z,975.99
2018-08-30T00:36:05.039Z,975.98
2018-08-30T00:36:43.999Z,976.00
2018-08-30T00:37:43.909Z,975.96
2018-08-30T00:38:43.857Z,975.97
2018-08-30T00:39:43.776Z,975.98
2018-08-30T00:40:43.704Z,975.98
2018-08-30T00:42:04.607Z,975.96
2018-08-30T00:42:43.565Z,976.02
2018-08-30T00:43:43.488Z,976.00
2018-08-30T00:44:43.420Z,976.03
2018-08-30T00:45:43.342Z,976.03
2018-08-30T00:46:43.271Z,976.01
2018-08-30T00:48:04.180Z,976.06
2018-08-30T00:48:43.134Z,976.09
2018-08-30T00:49:43.053Z,976.01
2018-08-30T00:50:42.982Z,976.07
2018-08-30T00:51:42.909Z,976.06
2018-08-30T00:52:42.850Z,976.04
2018-08-30T00:54:03.747Z,976.06
2018-08-30T00:54:42.710Z,976.03
2018-08-30T00:55:42.618Z,976.01
2018-08-30T00:56:42.549Z,976.04
2018-08-30T00:57:42.475Z,976.06
2018-08-30T00:58:42.411Z,976.00
2018-08-30T01:00:03.311Z,976.05
2018-08-30T01:00:42.262Z,976.04
2018-08-30T01:01:42.185Z,976.03
2018-08-30T01:02:42.126Z,976.05
2018-08-30T01:03:42.055Z,976.06
2018-08-30T01:04:41.980Z,976.05
2018-08-30T01:06:02.879Z,976.03
2018-08-30T01:06:41.829Z,976.07
2018-08-30T01:07:41.770Z,976.09
2018-08-30T01:08:41.694Z,976.14
2018-08-30T01:09:41.603Z,976.14
2018-08-30T01:10:41.543Z,976.12
2018-08-30T01:12:02.445Z,976.13
2018-08-30T01:12:41.405Z,976.06
2018-08-30T01:13:41.322Z,976.10
2018-08-30T01:14:41.259Z,976.10
2018-08-30T01:15:41.177Z,976.07
2018-08-30T01:16:41.109Z,976.10
2018-08-30T01:18:02.011Z,976.11
2018-08-30T01:18:40.965Z,976.13
2018-08-30T01:19:40.896Z,976.15
2018-08-30T01:20:40.829Z,976.15
2018-08-30T01:21:40.744Z,976.18
2018-08-30T01:22:40.685Z,976.19
2018-08-30T01:24:01.591Z,976.16
2018-08-30T01:24:40.537Z,976.16
2018-08-30T01:25:40.460Z,976.11
2018-08-30T01:26:40.395Z,976.13
2018-08-30T01:27:40.310Z,976.09
2018-08-30T01:28:40.252Z,976.11
2018-08-30T01:30:01.154Z,976.11
2018-08-30T01:30:40.103Z,976.13
2018-08-30T01:31:40.024Z,976.16
2018-08-30T01:32:39.958Z,976.15
2018-08-30T01:33:39.879Z,976.15
2018-08-30T01:34:39.820Z,976.13
2018-08-30T01:36:00.718Z,976.17
2018-08-30T01:36:39.670Z,976.14
2018-08-30T01:37:39.594Z,976.15
2018-08-30T01:38:39.524Z,976.15
2018-08-30T01:39:39.443Z,976.15
2018-08-30T01:40:39.383Z,976.15
2018-08-30T01:42:00.289Z,976.12
2018-08-30T01:42:39.235Z,976.15
2018-08-30T01:43:39.156Z,976.12
2018-08-30T01:44:39.089Z,976.10
2018-08-30T01:45:39.007Z,976.11
2018-08-30T01:46:38.953Z,976.09
2018-08-30T01:47:59.851Z,976.12
2018-08-30T01:48:38.805Z,976.10
2018-08-30T01:49:38.725Z,976.07
2018-08-30T01:50:38.654Z,976.09
2018-08-30T01:51:38.577Z,976.10
2018-08-30T01:52:38.515Z,976.10
2018-08-30T01:53:59.421Z,976.09
2018-08-30T01:54:38.370Z,976.11
2018-08-30T01:55:38.289Z,976.09
2018-08-30T01:56:38.272Z,976.09
2018-08-30T01:57:38.145Z,976.09
2018-08-30T01:58:38.083Z,976.07
2018-08-30T01:59:58.982Z,976.11
2018-08-30T02:00:37.934Z,976.11
2018-08-30T02:01:37.857Z,976.10
2018-08-30T02:02:37.788Z,976.09
2018-08-30T02:03:37.709Z,976.11
2018-08-30T02:04:37.652Z,976.12
2018-08-30T02:05:58.553Z,976.10
2018-08-30T02:06:37.504Z,976.12
2018-08-30T02:07:37.423Z,976.14
2018-08-30T02:08:37.355Z,976.16
2018-08-30T02:09:37.276Z,976.11
2018-08-30T02:10:37.214Z,976.17
2018-08-30T02:11:58.120Z,976.17
2018-08-30T02:12:37.065Z,976.08
2018-08-30T02:13:36.989Z,976.13
2018-08-30T02:14:36.931Z,976.12
2018-08-30T02:15:36.839Z,976.13
2018-08-30T02:16:36.783Z,976.15
2018-08-30T02:17:57.684Z,976.11
2018-08-30T02:18:36.632Z,976.13
2018-08-30T02:19:36.555Z,976.13
2018-08-30T02:20:36.493Z,976.13
2018-08-30T02:21:36.405Z,976.15
2018-08-30T02:22:36.338Z,976.15
2018-08-30T02:23:57.247Z,976.14
2018-08-30T02:24:36.200Z,976.11
2018-08-30T02:25:36.124Z,976.15
2018-08-30T02:26:36.057Z,976.14
2018-08-30T02:27:35.975Z,976.17
2018-08-30T02:28:35.904Z,976.20
2018-08-30T02:29:56.806Z,976.19
2018-08-30T02:30:35.764Z,976.20
2018-08-30T02:31:35.680Z,976.23
2018-08-30T02:32:35.620Z,976.20
2018-08-30T02:33:35.539Z,976.26
2018-08-30T02:34:35.470Z,976.27
2018-08-30T02:35:56.370Z,976.22
2018-08-30T02:36:35.330Z,976.20
2018-08-30T02:37:35.244Z,976.24
2018-08-30T02:38:35.184Z,976.28
2018-08-30T02:39:35.103Z,976.30
2018-08-30T02:40:35.039Z,976.32
2018-08-30T02:41:55.936Z,976.32
2018-08-30T02:42:34.891Z,976.37
2018-08-30T02:43:34.803Z,976.36
2018-08-30T02:44:34.752Z,976.36
2018-08-30T02:45:34.663Z,976.41
2018-08-30T02:46:34.600Z,976.39
2018-08-30T02:47:55.502Z,976.42
2018-08-30T02:48:34.452Z,976.44
2018-08-30T02:49:34.374Z,976.50
2018-08-30T02:50:34.307Z,976.40
2018-08-30T02:51:34.226Z,976.47
2018-08-30T02:52:34.173Z,976.52
2018-08-30T02:53:55.073Z,976.54
2018-08-30T02:54:34.019Z,976.61
2018-08-30T02:55:33.943Z,976.65
2018-08-30T02:56:33.875Z,976.69
2018-08-30T02:57:33.795Z,976.73
2018-08-30T02:58:33.779Z,976.74
2018-08-30T02:59:54.633Z,976.74
2018-08-30T03:00:33.584Z,976.70
2018-08-30T03:01:33.507Z,976.69
2018-08-30T03:02:33.440Z,976.76
2018-08-30T03:03:33.360Z,976.72
2018-08-30T03:04:33.293Z,976.75
2018-08-30T03:05:54.194Z,976.76
2018-08-30T03:06:33.144Z,976.80
2018-08-30T03:07:33.062Z,976.80
2018-08-30T03:08:33.006Z,976.77
2018-08-30T03:09:32.925Z,976.76
2018-08-30T03:10:32.856Z,976.76
2018-08-30T03:11:53.756Z,976.81
2018-08-30T03:12:32.709Z,976.75
2018-08-30T03:13:32.631Z,976.79
2018-08-30T03:14:32.559Z,976.79
2018-08-30T03:15:32.481Z,976.74
2018-08-30T03:16:32.420Z,976.72
2018-08-30T03:17:53.326Z,976.73
2018-08-30T03:18:32.273Z,976.75
2018-08-30T03:19:32.195Z,976.77
2018-08-30T03:20:32.124Z,976.83
2018-08-30T03:21:32.046Z,976.82
2018-08-30T03:22:31.977Z,976.81
2018-08-30T03:23:52.878Z,976.86
2018-08-30T03:24:31.838Z,976.83
2018-08-30T03:25:31.753Z,976.83
2018-08-30T03:26:31.691Z,976.80
2018-08-30T03:27:31.613Z,976.83
2018-08-30T03:28:31.551Z,976.80
2018-08-30T03:29:52.447Z,976.84
2018-08-30T03:30:31.447Z,976.81
2018-08-30T03:31:31.321Z,976.84
2018-08-30T03:32:31.253Z,976.87
2018-08-30T03:33:31.174Z,976.86
2018-08-30T03:34:31.113Z,976.89
2018-08-30T03:35:52.012Z,976.90
2018-08-30T03:36:30.964Z,976.86
2018-08-30T03:37:30.875Z,976.88
2018-08-30T03:38:30.816Z,976.88
2018-08-30T03:39:30.735Z,976.87
2018-08-30T03:40:30.669Z,976.89
2018-08-30T03:41:51.568Z,976.90
2018-08-30T03:42:30.519Z,976.87
2018-08-30T03:43:30.438Z,976.88
2018-08-30T03:44:30.369Z,976.90
2018-08-30T03:45:30.296Z,976.83
2018-08-30T03:46:30.223Z,976.81
2018-08-30T03:47:51.134Z,976.89
2018-08-30T03:48:30.086Z,976.90
2018-08-30T03:49:29.999Z,976.96
2018-08-30T03:50:29.935Z,976.94
2018-08-30T03:51:29.867Z,976.95
2018-08-30T03:52:29.792Z,976.94
2018-08-30T03:53:50.693Z,976.95
2018-08-30T03:54:29.639Z,976.93
2018-08-30T03:55:29.565Z,976.95
2018-08-30T03:56:29.508Z,976.92
2018-08-30T03:57:29.415Z,976.89
2018-08-30T03:58:29.345Z,976.86
2018-08-30T03:59:50.257Z,976.93
2018-08-30T04:00:29.205Z,976.89
2018-08-30T04:01:29.125Z,976.91
2018-08-30T04:02:29.060Z,976.93
2018-08-30T04:03:28.983Z,976.96
2018-08-30T04:04:28.913Z,976.92
2018-08-30T04:05:49.811Z,976.91
2018-08-30T04:06:28.771Z,976.87
2018-08-30T04:07:28.685Z,976.96
2018-08-30T04:08:28.614Z,976.93
2018-08-30T04:09:28.537Z,977.00
2018-08-30T04:10:28.480Z,976.96
2018-08-30T04:11:49.380Z,977.02
2018-08-30T04:12:28.333Z,977.04
2018-08-30T04:13:28.306Z,977.06
2018-08-30T04:14:28.182Z,977.02
2018-08-30T04:15:28.111Z,977.00
2018-08-30T04:16:28.045Z,977.02
2018-08-30T04:17:48.936Z,977.05
2018-08-30T04:18:27.886Z,977.03
2018-08-30T04:19:27.804Z,977.02
2018-08-30T04:20:27.738Z,977.04
2018-08-30T04:21:27.657Z,977.02
2018-08-30T04:22:27.591Z,977.01
2018-08-30T04:23:48.491Z,977.03
2018-08-30T04:24:27.455Z,977.00
2018-08-30T04:25:27.628Z,977.05
2018-08-30T04:26:27.302Z,977.04
2018-08-30T04:27:27.366Z,977.04
2018-08-30T04:28:27.143Z,977.02
2018-08-30T04:29:48.057Z,977.05
2018-08-30T04:30:26.998Z,977.05
2018-08-30T04:31:27.037Z,977.08
2018-08-30T04:32:26.851Z,977.11
2018-08-30T04:33:26.779Z,977.09
2018-08-30T04:34:26.707Z,977.08
2018-08-30T04:35:47.625Z,977.08
2018-08-30T04:36:26.556Z,977.08
2018-08-30T04:37:26.493Z,977.05
2018-08-30T04:38:26.448Z,977.10
2018-08-30T04:39:26.347Z,977.08
2018-08-30T04:40:26.646Z,977.12
2018-08-30T04:41:47.183Z,977.12
2018-08-30T04:42:26.159Z,977.08
2018-08-30T04:43:30.939Z,977.13
2018-08-30T04:44:26.097Z,977.14
2018-08-30T04:45:25.963Z,977.17
2018-08-30T04:46:25.822Z,977.18
2018-08-30T04:47:49.797Z,977.15
2018-08-30T04:48:25.677Z,977.18
2018-08-30T04:49:25.667Z,977.18
2018-08-30T04:50:25.581Z,977.20
2018-08-30T04:51:25.549Z,977.25
2018-08-30T04:52:28.798Z,977.27
2018-08-30T04:53:46.292Z,977.22
2018-08-30T04:54:25.252Z,977.29
2018-08-30T04:55:25.165Z,977.27
2018-08-30T04:56:25.093Z,977.31
2018-08-30T04:57:25.017Z,977.28
2018-08-30T04:58:24.948Z,977.31
2018-08-30T04:59:45.850Z,977.29
2018-08-30T05:00:24.809Z,977.30
2018-08-30T05:01:24.720Z,977.28
2018-08-30T05:02:24.648Z,977.29
2018-08-30T05:03:24.570Z,977.31
2018-08-30T05:04:24.513Z,977.31
2018-08-30T05:05:45.412Z,977.30
2018-08-30T05:06:24.366Z,977.30
2018-08-30T05:07:24.284Z,977.32
2018-08-30T05:08:24.215Z,977.33
2018-08-30T05:09:24.141Z,977.34
2018-08-30T05:10:24.073Z,977.38
2018-08-30T05:11:44.970Z,977.39
2018-08-30T05:12:23.922Z,977.40
2018-08-30T05:13:23.839Z,977.41
2018-08-30T05:14:23.775Z,977.43
2018-08-30T05:15:23.705Z,977.40
2018-08-30T05:16:23.671Z,977.44
2018-08-30T05:17:44.528Z,977.42
2018-08-30T05:18:23.473Z,977.43
2018-08-30T05:19:23.414Z,977.48
2018-08-30T05:20:23.339Z,977.43
2018-08-30T05:21:23.261Z,977.45
2018-08-30T05:22:23.190Z,977.53
2018-08-30T05:23:44.104Z,977.49
2018-08-30T05:24:23.045Z,977.49
2018-08-30T05:25:22.965Z,977.50
2018-08-30T05:26:22.893Z,977.51
2018-08-30T05:27:22.814Z,977.50
2018-08-30T05:28:22.746Z,977.49
2018-08-30T05:29:43.723Z,977.52
2018-08-30T05:30:22.598Z,977.52
2018-08-30T05:31:22.522Z,977.56
2018-08-30T05:32:22.452Z,977.59
2018-08-30T05:33:22.383Z,977.57
2018-08-30T05:34:22.307Z,977.58
2018-08-30T05:35:43.220Z,977.63
2018-08-30T05:36:22.188Z,977.63
2018-08-30T05:37:22.086Z,977.66
2018-08-30T05:38:22.010Z,977.67
2018-08-30T05:39:21.940Z,977.67
2018-08-30T05:40:21.857Z,977.73
2018-08-30T05:41:42.769Z,977.71
2018-08-30T05:42:21.710Z,977.73
2018-08-30T05:43:21.643Z,977.75
2018-08-30T05:44:21.602Z,977.73
2018-08-30T05:45:21.506Z,977.71
2018-08-30T05:46:21.415Z,977.70
2018-08-30T05:47:42.507Z,977.71
2018-08-30T05:48:21.267Z,977.74
2018-08-30T05:49:21.200Z,977.73
2018-08-30T05:50:21.121Z,977.75
2018-08-30T05:51:21.063Z,977.74
2018-08-30T05:52:20.976Z,977.75
2018-08-30T05:53:41.894Z,977.76
2018-08-30T05:54:20.833Z,977.81
2018-08-30T05:55:20.765Z,977.79
2018-08-30T05:56:20.695Z,977.86
2018-08-30T05:57:20.621Z,977.84
2018-08-30T05:58:20.547Z,977.86
2018-08-30T05:59:41.465Z,977.89
2018-08-30T06:00:20.398Z,977.82
2018-08-30T06:01:20.320Z,977.85
2018-08-30T06:02:20.273Z,977.87
2018-08-30T06:03:20.174Z,977.91
2018-08-30T06:04:20.103Z,977.93
2018-08-30T06:05:45.759Z,977.91
2018-08-30T06:06:25.287Z,977.93
2018-08-30T06:07:27.061Z,977.99
2018-08-30T06:08:25.274Z,978.01
2018-08-30T06:09:24.489Z,977.99
2018-08-30T06:10:24.313Z,978.01
2018-08-30T06:11:40.884Z,978.03
2018-08-30T06:12:19.512Z,978.03
2018-08-30T06:13:19.442Z,978.02
2018-08-30T06:14:19.379Z,978.01
2018-08-30T06:15:19.297Z,978.05
2018-08-30T06:16:19.230Z,978.09
2018-08-30T06:17:40.127Z,978.13
2018-08-30T06:18:19.078Z,978.09
2018-08-30T06:19:19.009Z,978.13
2018-08-30T06:20:18.931Z,978.12
2018-08-30T06:21:18.862Z,978.17
2018-08-30T06:22:18.781Z,978.17
2018-08-30T06:23:39.685Z,978.22
2018-08-30T06:24:18.633Z,978.22
2018-08-30T06:25:18.565Z,978.21
2018-08-30T06:26:18.488Z,978.20
2018-08-30T06:27:18.420Z,978.25
2018-08-30T06:28:18.337Z,978.27
2018-08-30T06:29:39.248Z,978.27
2018-08-30T06:30:18.190Z,978.29
2018-08-30T06:31:18.130Z,978.32
2018-08-30T06:32:18.042Z,978.36
2018-08-30T06:33:17.963Z,978.37
2018-08-30T06:34:17.912Z,978.40
2018-08-30T06:35:38.835Z,978.36
2018-08-30T06:36:17.756Z,978.38
2018-08-30T06:37:17.680Z,978.42
2018-08-30T06:38:17.630Z,978.42
2018-08-30T06:39:17.544Z,978.38
2018-08-30T06:40:17.461Z,978.44
2018-08-30T06:41:38.360Z,978.43
2018-08-30T06:42:17.314Z,978.41
2018-08-30T06:43:17.236Z,978.42
2018-08-30T06:44:17.174Z,978.46
2018-08-30T06:45:17.102Z,978.48
2018-08-30T06:46:17.021Z,978.49
2018-08-30T06:47:37.931Z,978.50
2018-08-30T06:48:16.870Z,978.46
2018-08-30T06:49:16.799Z,978.45
2018-08-30T06:50:16.720Z,978.46
2018-08-30T06:51:16.650Z,978.50
2018-08-30T06:52:16.573Z,978.52
2018-08-30T06:53:37.473Z,978.51
2018-08-30T06:54:16.437Z,978.54
2018-08-30T06:55:16.358Z,978.58
2018-08-30T06:56:16.332Z,978.57
2018-08-30T06:57:16.207Z,978.58
2018-08-30T06:58:16.141Z,978.59
2018-08-30T06:59:37.052Z,978.60
2018-08-30T07:00:15.989Z,978.59
2018-08-30T07:01:16.175Z,978.58
2018-08-30T07:02:15.846Z,978.62
2018-08-30T07:03:15.765Z,978.62
2018-08-30T07:04:15.781Z,978.63
2018-08-30T07:05:36.602Z,978.64
2018-08-30T07:06:15.546Z,978.64
2018-08-30T07:07:15.478Z,978.66
2018-08-30T07:08:15.530Z,978.65
2018-08-30T07:09:15.320Z,978.69
2018-08-30T07:10:15.370Z,978.70
2018-08-30T07:11:36.162Z,978.71
2018-08-30T07:12:15.187Z,978.74
2018-08-30T07:13:15.038Z,978.68
2018-08-30T07:14:15.098Z,978.72
2018-08-30T07:15:14.898Z,978.69
2018-08-30T07:16:14.817Z,978.76
2018-08-30T07:17:35.800Z,978.75
2018-08-30T07:18:14.669Z,978.77
2018-08-30T07:19:14.599Z,978.79
2018-08-30T07:20:14.623Z,978.79
2018-08-30T07:21:14.479Z,978.77
2018-08-30T07:22:14.532Z,978.80
2018-08-30T07:23:35.278Z,978.83
2018-08-30T07:24:14.352Z,978.83
2018-08-30T07:25:14.156Z,978.83
2018-08-30T07:26:14.151Z,978.85
2018-08-30T07:27:14.010Z,978.81
2018-08-30T07:28:14.058Z,978.82
2018-08-30T07:29:35.112Z,978.86
2018-08-30T07:30:13.834Z,978.86
2018-08-30T07:31:13.774Z,978.93
2018-08-30T07:32:13.648Z,978.90
2018-08-30T07:33:13.586Z,978.93
2018-08-30T07:34:13.516Z,978.92
2018-08-30T07:35:34.588Z,978.97
2018-08-30T07:36:13.348Z,979.01
2018-08-30T07:37:13.419Z,979.00
2018-08-30T07:38:13.921Z,979.05
2018-08-30T07:39:13.125Z,979.03
2018-08-30T07:40:13.059Z,979.03
2018-08-30T07:41:34.088Z,979.04
2018-08-30T07:42:13.037Z,979.03
2018-08-30T07:43:12.841Z,979.05
2018-08-30T07:44:12.894Z,979.07
2018-08-30T07:45:12.686Z,979.09
2018-08-30T07:46:12.654Z,979.13
2018-08-30T07:47:33.520Z,979.14
2018-08-30T07:48:12.562Z,979.18
2018-08-30T07:49:12.395Z,979.16
2018-08-30T07:50:12.476Z,979.19
2018-08-30T07:51:12.242Z,979.23
2018-08-30T07:52:12.183Z,979.22
2018-08-30T07:53:33.089Z,979.24
2018-08-30T07:54:12.096Z,979.24
2018-08-30T07:55:11.957Z,979.28
2018-08-30T07:56:11.890Z,979.28
2018-08-30T07:57:11.913Z,979.33
2018-08-30T07:58:11.732Z,979.29
2018-08-30T07:59:32.648Z,979.33
2018-08-30T08:00:11.628Z,979.33
2018-08-30T08:01:11.514Z,979.35
2018-08-30T08:02:11.443Z,979.37
2018-08-30T08:03:11.378Z,979.38
2018-08-30T08:04:11.340Z,979.36
2018-08-30T08:05:32.200Z,979.36
2018-08-30T08:06:11.251Z,979.37
2018-08-30T08:07:11.695Z,979.36
2018-08-30T08:08:11.160Z,979.35
2018-08-30T08:09:10.920Z,979.36
2018-08-30T08:10:10.977Z,979.37
2018-08-30T08:11:31.772Z,979.40
2018-08-30T08:12:10.717Z,979.41
2018-08-30T08:13:10.651Z,979.45
2018-08-30T08:14:10.696Z,979.45
2018-08-30T08:15:10.496Z,979.43
2018-08-30T08:16:10.417Z,979.46
2018-08-30T08:17:31.333Z,979.50
2018-08-30T08:18:10.362Z,979.46
2018-08-30T08:19:10.234Z,979.50
2018-08-30T08:20:10.129Z,979.51
2018-08-30T08:21:10.056Z,979.49
2018-08-30T08:22:09.987Z,979.54
2018-08-30T08:23:30.897Z,979.53
2018-08-30T08:24:09.949Z,979.55
2018-08-30T08:25:09.799Z,979.56
2018-08-30T08:26:09.802Z,979.62
2018-08-30T08:27:09.621Z,979.55
2018-08-30T08:28:09.602Z,979.55
2018-08-30T08:29:30.454Z,979.59
2018-08-30T08:30:09.413Z,979.57
2018-08-30T08:31:09.360Z,979.60
2018-08-30T08:32:09.256Z,979.61
2018-08-30T08:33:09.183Z,979.60
2018-08-30T08:34:09.126Z,979.61
2018-08-30T08:35:30.017Z,979.60
2018-08-30T08:36:09.041Z,979.64
2018-08-30T08:37:08.880Z,979.64
2018-08-30T08:38:08.821Z,979.64
2018-08-30T08:39:08.756Z,979.68
2018-08-30T08:40:08.654Z,979.68
2018-08-30T08:41:29.573Z,979.69
2018-08-30T08:42:08.574Z,979.69
2018-08-30T08:43:08.459Z,979.64
2018-08-30T08:44:08.376Z,979.62
2018-08-30T08:45:08.300Z,979.62
2018-08-30T08:46:08.290Z,979.66
2018-08-30T08:47:29.564Z,979.59
2018-08-30T08:48:08.446Z,979.65
2018-08-30T08:49:08.312Z,979.64
2018-08-30T08:50:08.783Z,979.62
2018-08-30T08:51:07.886Z,979.64
2018-08-30T08:52:07.818Z,979.60
2018-08-30T08:53:28.690Z,979.60
2018-08-30T08:54:07.727Z,979.65
2018-08-30T08:55:07.570Z,979.66
2018-08-30T08:56:07.541Z,979.64
2018-08-30T08:57:07.420Z,979.67
2018-08-30T08:58:07.453Z,979.68
2018-08-30T08:59:28.244Z,979.69
2018-08-30T09:00:07.193Z,979.70
2018-08-30T09:01:07.132Z,979.65
2018-08-30T09:02:07.067Z,979.66
2018-08-30T09:03:06.981Z,979.69
2018-08-30T09:04:06.980Z,979.63
2018-08-30T09:05:27.812Z,979.66
2018-08-30T09:06:06.788Z,979.67
2018-08-30T09:07:06.701Z,979.66
2018-08-30T09:08:06.702Z,979.64
2018-08-30T09:09:06.522Z,979.66
2018-08-30T09:10:06.503Z,979.67
2018-08-30T09:11:27.377Z,979.67
2018-08-30T09:12:06.420Z,979.74
2018-08-30T09:13:06.245Z,979.74
2018-08-30T09:14:06.229Z,979.76
2018-08-30T09:15:06.135Z,979.78
2018-08-30T09:16:06.057Z,979.73
2018-08-30T09:17:26.931Z,979.75
2018-08-30T09:18:05.950Z,979.78
2018-08-30T09:19:05.791Z,979.76
2018-08-30T09:20:05.753Z,979.76
2018-08-30T09:21:05.646Z,979.78
2018-08-30T09:22:05.674Z,979.76
2018-08-30T09:23:26.505Z,979.79
2018-08-30T09:24:05.486Z,979.78
2018-08-30T09:25:05.371Z,979.81
2018-08-30T09:26:05.379Z,979.80
2018-08-30T09:27:05.220Z,979.78
2018-08-30T09:28:05.207Z,979.78
2018-08-30T09:29:26.060Z,979.80
2018-08-30T09:30:05.121Z,979.82
2018-08-30T09:31:05.034Z,979.85
2018-08-30T09:32:04.919Z,979.85
2018-08-30T09:33:04.773Z,979.85
2018-08-30T09:34:04.712Z,979.84
2018-08-30T09:35:25.621Z,979.82
2018-08-30T09:36:04.629Z,979.83
2018-08-30T09:37:04.492Z,979.76
2018-08-30T09:38:04.412Z,979.77
2018-08-30T09:39:04.445Z,979.75
2018-08-30T09:40:04.273Z,979.71
2018-08-30T09:41:25.244Z,979.75
2018-08-30T09:42:04.129Z,979.78
2018-08-30T09:43:04.047Z,979.73
2018-08-30T09:44:04.069Z,979.76
2018-08-30T09:45:05.280Z,979.72
2018-08-30T09:46:04.528Z,979.73
2018-08-30T09:47:24.820Z,979.72
2018-08-30T09:48:03.784Z,979.75
2018-08-30T09:49:03.955Z,979.77
2018-08-30T09:50:03.624Z,979.72
2018-08-30T09:51:03.526Z,979.76
2018-08-30T09:52:03.397Z,979.78
2018-08-30T09:53:24.378Z,979.81
2018-08-30T09:54:03.449Z,979.80
2018-08-30T09:55:03.221Z,979.80
2018-08-30T09:56:03.130Z,979.81
2018-08-30T09:57:03.164Z,979.84
2018-08-30T09:58:02.956Z,979.84
2018-08-30T09:59:23.934Z,979.84
2018-08-30T10:00:02.813Z,979.84
2018-08-30T10:01:04.907Z,979.88
2018-08-30T10:02:02.808Z,979.87
2018-08-30T10:03:02.927Z,979.86
2018-08-30T10:04:03.608Z,979.88
2018-08-30T10:05:23.981Z,979.91
2018-08-30T10:06:02.480Z,979.85
2018-08-30T10:07:02.302Z,979.97
2018-08-30T10:08:02.233Z,979.95
2018-08-30T10:09:02.193Z,980.03
2018-08-30T10:10:02.084Z,979.95
2018-08-30T10:11:23.102Z,979.97
2018-08-30T10:12:01.925Z,979.95
2018-08-30T10:13:01.910Z,979.92
2018-08-30T10:14:01.780Z,979.94
2018-08-30T10:15:01.719Z,979.94
2018-08-30T10:16:01.765Z,979.93
2018-08-30T10:17:22.645Z,979.95
2018-08-30T10:18:01.494Z,979.94
2018-08-30T10:19:01.424Z,979.99
2018-08-30T10:20:01.444Z,979.98
2018-08-30T10:21:01.284Z,979.98
2018-08-30T10:22:01.261Z,979.98
2018-08-30T10:23:22.117Z,979.99
2018-08-30T10:24:01.169Z,979.94
2018-08-30T10:25:00.995Z,979.96
2018-08-30T10:26:00.927Z,979.94
2018-08-30T10:27:00.875Z,979.98
2018-08-30T10:28:00.773Z,980.02
2018-08-30T10:29:21.784Z,980.03
2018-08-30T10:30:00.662Z,980.05
2018-08-30T10:31:00.558Z,980.04
2018-08-30T10:32:00.489Z,980.02
2018-08-30T10:33:00.509Z,980.06
2018-08-30T10:34:00.334Z,980.04
2018-08-30T10:35:21.252Z,980.04
2018-08-30T10:36:00.198Z,980.04
2018-08-30T10:37:00.136Z,980.05
2018-08-30T10:38:00.043Z,980.02
2018-08-30T10:39:00.034Z,980.00
2018-08-30T10:39:59.905Z,979.98
2018-08-30T10:41:20.819Z,979.98
2018-08-30T10:41:59.847Z,979.97
2018-08-30T10:42:59.688Z,980.03
2018-08-30T10:43:59.658Z,979.98
2018-08-30T10:44:59.530Z,979.97
2018-08-30T10:45:59.461Z,979.95
2018-08-30T10:47:20.381Z,980.01
2018-08-30T10:47:59.385Z,980.03
2018-08-30T10:48:59.234Z,979.95
2018-08-30T10:49:59.277Z,979.92
2018-08-30T10:50:59.109Z,979.96
2018-08-30T10:51:59.038Z,979.96
2018-08-30T10:53:19.942Z,979.92
2018-08-30T10:53:58.909Z,979.99
2018-08-30T10:54:58.820Z,979.97
2018-08-30T10:55:58.751Z,980.00
2018-08-30T10:56:58.672Z,980.03
2018-08-30T10:57:58.623Z,979.99
2018-08-30T10:59:19.504Z,980.07
2018-08-30T10:59:58.537Z,980.06
2018-08-30T11:00:58.376Z,980.09
2018-08-30T11:01:58.347Z,980.10
2018-08-30T11:02:58.242Z,980.08
2018-08-30T11:03:58.261Z,980.09
2018-08-30T11:05:19.079Z,980.08
2018-08-30T11:05:58.065Z,980.09
2018-08-30T11:06:57.979Z,980.07
2018-08-30T11:07:57.974Z,980.12
2018-08-30T11:08:57.817Z,980.11
2018-08-30T11:09:57.784Z,980.14
2018-08-30T11:11:18.695Z,980.15
2018-08-30T11:11:57.592Z,980.15
2018-08-30T11:12:57.671Z,980.18
2018-08-30T11:13:57.450Z,980.16
2018-08-30T11:14:57.380Z,980.13
2018-08-30T11:15:57.414Z,980.11
2018-08-30T11:17:18.223Z,980.12
2018-08-30T11:17:57.173Z,980.14
2018-08-30T11:18:57.084Z,980.17
2018-08-30T11:19:57.037Z,980.14
2018-08-30T11:20:56.962Z,980.14
2018-08-30T11:21:56.948Z,980.12
2018-08-30T11:23:17.782Z,980.11
2018-08-30T11:23:56.750Z,980.09
2018-08-30T11:24:56.663Z,980.12
2018-08-30T11:25:56.679Z,980.13
2018-08-30T11:26:56.534Z,980.17
2018-08-30T11:27:56.474Z,980.17
2018-08-30T11:29:17.356Z,980.17
2018-08-30T11:29:56.396Z,980.14
2018-08-30T11:30:56.227Z,980.19
2018-08-30T11:31:58.237Z,980.21
2018-08-30T11:32:56.089Z,980.13
2018-08-30T11:33:56.124Z,980.12
2018-08-30T11:35:16.939Z,980.17
2018-08-30T11:35:57.979Z,980.23
2018-08-30T11:36:55.812Z,980.19
2018-08-30T11:37:55.827Z,980.21
2018-08-30T11:38:55.665Z,980.22
2018-08-30T11:39:55.602Z,980.25
2018-08-30T11:41:16.564Z,980.30
2018-08-30T11:41:55.458Z,980.36
2018-08-30T11:42:55.453Z,980.35
2018-08-30T11:43:55.316Z,980.36
2018-08-30T11:44:55.261Z,980.36
2018-08-30T11:45:55.940Z,980.42
2018-08-30T11:47:16.094Z,980.42
2018-08-30T11:47:55.079Z,980.41
2018-08-30T11:48:54.958Z,980.42
2018-08-30T11:49:54.989Z,980.42
2018-08-30T11:50:54.798Z,980.42
2018-08-30T11:51:54.801Z,980.42
2018-08-30T11:53:15.650Z,980.51
2018-08-30T11:53:54.704Z,980.49
2018-08-30T11:54:54.522Z,980.49
2018-08-30T11:55:54.452Z,980.53
2018-08-30T11:56:54.392Z,980.58
2018-08-30T11:57:54.314Z,980.53
2018-08-30T11:59:15.253Z,980.57
2018-08-30T11:59:54.170Z,980.57
2018-08-30T12:00:54.123Z,980.58
2018-08-30T12:01:54.021Z,980.61
2018-08-30T12:02:54.049Z,980.60
2018-08-30T12:03:53.881Z,980.59
2018-08-30T12:05:14.791Z,980.59
2018-08-30T12:05:53.771Z,980.57
2018-08-30T12:06:53.667Z,980.60
2018-08-30T12:07:53.701Z,980.60
2018-08-30T12:08:53.525Z,980.66
2018-08-30T12:09:53.447Z,980.67
2018-08-30T12:11:14.428Z,980.66
2018-08-30T12:11:53.390Z,980.66
2018-08-30T12:12:53.229Z,980.69
2018-08-30T12:13:53.173Z,980.69
2018-08-30T12:14:53.095Z,980.68
2018-08-30T12:15:53.023Z,980.72
2018-08-30T12:17:13.938Z,980.73
2018-08-30T12:17:52.920Z,980.76
2018-08-30T12:18:52.883Z,980.76
2018-08-30T12:19:52.740Z,980.80
2018-08-30T12:20:52.727Z,980.80
2018-08-30T12:21:52.589Z,980.83
2018-08-30T12:23:13.531Z,980.82
2018-08-30T12:23:52.441Z,980.79
2018-08-30T12:24:52.375Z,980.80
2018-08-30T12:25:52.307Z,980.81
2018-08-30T12:26:52.238Z,980.82